Time;durP1;ratioP1;P1;durP2;ratioP2;P2;SDS_P1;SDS_P2;PMS_P1;PMS_P2;Temp;Humidity;BMP_temperature;BMP_pressure;BME280_temperature;BME280_humidity;BME280_pressure;Samples;Min_cycle;Max_cycle;Signal;HPM_P1;HPM_P2
2023/04/22 00:01:50;;;;;;;4.13;2.00;;;17.50;77.50;;;;;;5071959;28;20202;-66
2023/04/22 00:04:20;;;;;;;7.60;2.27;;;17.60;77.80;;;;;;5066888;28;20285;-67
2023/04/22 00:06:47;;;;;;;5.83;2.00;;;17.60;77.60;;;;;;5071593;28;20182;-66
2023/04/22 00:09:14;;;;;;;7.43;2.80;;;17.70;77.70;;;;;;5070115;28;20198;-66
2023/04/22 00:11:41;;;;;;;6.53;2.40;;;17.70;77.90;;;;;;5079437;28;20222;-67
2023/04/22 00:14:09;;;;;;;6.23;2.47;;;17.70;78.30;;;;;;5072863;28;20211;-65
2023/04/22 00:16:36;;;;;;;8.03;2.10;;;17.70;78.60;;;;;;5071281;28;20175;-67
2023/04/22 00:19:07;;;;;;;22.87;8.63;;;17.70;78.60;;;;;;5072651;28;20248;-68
2023/04/22 00:21:35;;;;;;;11.47;5.70;;;17.80;79.00;;;;;;5070185;28;20556;-66
2023/04/22 00:24:02;;;;;;;7.93;3.83;;;17.80;78.80;;;;;;5070926;28;20183;-67
2023/04/22 00:26:30;;;;;;;8.80;3.10;;;17.80;78.80;;;;;;5068538;28;20183;-68
2023/04/22 00:28:57;;;;;;;5.93;2.47;;;18.00;79.00;;;;;;5070269;28;20179;-66
2023/04/22 00:31:24;;;;;;;6.10;2.40;;;18.10;79.00;;;;;;5067131;28;20202;-66
2023/04/22 00:33:52;;;;;;;7.77;2.30;;;18.20;78.90;;;;;;5068925;28;20214;-65
2023/04/22 00:36:19;;;;;;;8.43;2.87;;;18.30;78.90;;;;;;5070971;28;20194;-66
2023/04/22 00:38:50;;;;;;;4.57;2.40;;;18.30;79.20;;;;;;5063359;28;20191;-65
2023/04/22 00:41:17;;;;;;;6.27;2.63;;;18.50;79.30;;;;;;5070041;28;20179;-66
2023/04/22 00:43:45;;;;;;;6.80;2.30;;;18.70;79.50;;;;;;5068718;28;20189;-65
2023/04/22 00:46:14;;;;;;;6.30;2.83;;;18.80;79.80;;;;;;5071511;28;20270;-67
2023/04/22 00:48:42;;;;;;;5.57;2.70;;;18.80;80.20;;;;;;5071031;28;20683;-65
2023/04/22 00:51:09;;;;;;;9.87;2.27;;;19.00;80.30;;;;;;5071286;28;20275;-66
2023/04/22 00:53:36;;;;;;;10.50;2.17;;;19.20;80.30;;;;;;5073133;28;20230;-67
2023/04/22 00:56:04;;;;;;;8.23;1.90;;;19.40;80.30;;;;;;5066295;28;20634;-67
2023/04/22 00:58:32;;;;;;;7.93;2.53;;;19.70;80.00;;;;;;5072616;28;20183;-67
2023/04/22 01:00:59;;;;;;;7.43;1.90;;;19.80;79.70;;;;;;5072502;28;20179;-65
2023/04/22 01:03:29;;;;;;;11.13;2.10;;;19.90;79.30;;;;;;5072152;28;20186;-67
2023/04/22 01:05:57;;;;;;;6.67;1.93;;;20.10;78.80;;;;;;5065708;28;20598;-67
2023/04/22 01:08:31;;;;;;;7.67;2.17;;;20.20;78.50;;;;;;5070478;28;20254;-68
2023/04/22 01:10:58;;;;;;;13.53;1.90;;;20.30;78.20;;;;;;5071286;28;20218;-67
2023/04/22 01:13:26;;;;;;;7.43;1.93;;;20.50;77.90;;;;;;5065542;28;20321;-67
2023/04/22 01:15:56;;;;;;;6.00;2.10;;;20.50;77.20;;;;;;5073287;28;20186;-67
2023/04/22 01:18:24;;;;;;;7.90;1.93;;;20.60;77.00;;;;;;5070102;28;20262;-66
2023/04/22 01:20:52;;;;;;;6.10;2.17;;;20.60;77.10;;;;;;5074386;28;20262;-66
2023/04/22 01:23:22;;;;;;;6.77;1.60;;;20.80;76.80;;;;;;5067998;28;20183;-65
2023/04/22 01:25:50;;;;;;;6.07;1.60;;;20.80;76.50;;;;;;5067715;28;20183;-66
2023/04/22 01:28:18;;;;;;;10.80;1.90;;;20.80;76.10;;;;;;5070684;28;20190;-66
2023/04/22 01:30:47;;;;;;;34.13;4.67;;;20.90;75.90;;;;;;5072613;28;20194;-67
2023/04/22 01:33:16;;;;;;;6.37;1.80;;;21.00;75.90;;;;;;5071759;28;20684;-66
2023/04/22 01:35:43;;;;;;;6.90;1.60;;;21.20;76.00;;;;;;5066772;28;20179;-67
2023/04/22 01:38:12;;;;;;;4.43;1.63;;;21.30;75.60;;;;;;5073712;28;20180;-67
2023/04/22 01:40:39;;;;;;;6.93;2.10;;;21.30;74.70;;;;;;5064260;28;20278;-66
2023/04/22 01:43:07;;;;;;;6.80;2.03;;;21.30;74.90;;;;;;5070769;28;20187;-66
2023/04/22 01:45:34;;;;;;;4.23;2.10;;;21.30;74.90;;;;;;5070032;28;20229;-68
2023/04/22 01:48:01;;;;;;;7.13;1.80;;;21.30;75.30;;;;;;5065895;28;20542;-64
2023/04/22 01:50:29;;;;;;;5.80;1.73;;;21.20;75.80;;;;;;5069515;28;20190;-66
2023/04/22 01:52:56;;;;;;;9.53;2.00;;;21.00;76.30;;;;;;5069925;28;20307;-66
2023/04/22 01:55:24;;;;;;;9.13;1.90;;;20.90;76.90;;;;;;5069128;28;20709;-67
2023/04/22 01:57:51;;;;;;;4.63;1.63;;;20.80;77.00;;;;;;5073036;28;20180;-65
2023/04/22 02:00:19;;;;;;;7.87;2.03;;;20.70;77.40;;;;;;5072303;28;20179;-65
2023/04/22 02:02:46;;;;;;;8.00;1.97;;;20.60;77.60;;;;;;5073049;28;20755;-65
2023/04/22 02:05:14;;;;;;;4.90;1.80;;;20.60;77.80;;;;;;5070013;28;20175;-65
2023/04/22 02:07:42;;;;;;;4.90;1.70;;;20.50;77.80;;;;;;5072386;28;20186;-65
2023/04/22 02:10:10;;;;;;;6.43;1.93;;;20.50;78.20;;;;;;5072478;28;20266;-64
2023/04/22 02:12:38;;;;;;;5.23;1.93;;;20.40;78.10;;;;;;5070813;28;20571;-66
2023/04/22 02:15:05;;;;;;;5.90;2.07;;;20.40;78.10;;;;;;5071312;28;20598;-66
2023/04/22 02:17:34;;;;;;;5.60;1.67;;;20.40;78.20;;;;;;5071720;28;20210;-66
2023/04/22 02:20:03;;;;;;;4.90;1.93;;;20.50;78.00;;;;;;5071596;28;20175;-65
2023/04/22 02:22:32;;;;;;;6.10;1.90;;;20.40;77.40;;;;;;5071032;28;20175;-66
2023/04/22 02:25:00;;;;;;;8.27;1.70;;;20.40;77.60;;;;;;5071964;28;20266;-66
2023/04/22 02:27:27;;;;;;;4.00;2.00;;;20.40;77.50;;;;;;5070475;28;20184;-65
2023/04/22 02:29:54;;;;;;;3.00;1.70;;;20.50;77.90;;;;;;5070082;28;20187;-64
2023/04/22 02:32:22;;;;;;;7.17;2.53;;;20.40;77.70;;;;;;5072243;28;20211;-68
2023/04/22 02:34:49;;;;;;;8.00;2.13;;;20.50;77.80;;;;;;5069991;28;20229;-64
2023/04/22 02:37:18;;;;;;;4.83;1.70;;;20.40;78.10;;;;;;5072337;28;20199;-68
2023/04/22 02:39:45;;;;;;;4.10;1.77;;;20.50;77.90;;;;;;5070336;28;20226;-66
2023/04/22 02:42:12;;;;;;;5.57;1.67;;;20.40;77.60;;;;;;5073619;28;20229;-67
2023/04/22 02:44:39;;;;;;;8.30;2.57;;;20.30;78.30;;;;;;5073473;28;20222;-66
2023/04/22 02:47:07;;;;;;;7.37;2.07;;;20.30;79.00;;;;;;5074712;28;20178;-67
2023/04/22 02:49:35;;;;;;;6.70;2.00;;;20.30;79.00;;;;;;5074658;28;20187;-66
2023/04/22 02:52:02;;;;;;;7.47;1.80;;;20.20;79.40;;;;;;5071352;28;20178;-66
2023/04/22 02:54:29;;;;;;;6.77;2.30;;;20.10;79.60;;;;;;5076434;28;20248;-67
2023/04/22 02:56:57;;;;;;;4.87;1.83;;;20.00;79.70;;;;;;5071625;28;20179;-68
2023/04/22 02:59:24;;;;;;;4.10;1.87;;;20.00;79.60;;;;;;5073212;28;20236;-65
2023/04/22 03:01:51;;;;;;;6.60;1.93;;;20.00;79.80;;;;;;5070148;28;20624;-67
2023/04/22 03:04:20;;;;;;;5.87;2.30;;;20.10;79.80;;;;;;5073002;28;20187;-66
2023/04/22 03:06:49;;;;;;;6.43;1.90;;;20.10;79.50;;;;;;5063427;28;20191;-66
2023/04/22 03:09:16;;;;;;;7.27;2.07;;;20.20;79.30;;;;;;5073470;28;20285;-66
2023/04/22 03:11:44;;;;;;;6.20;1.90;;;20.30;79.10;;;;;;5071203;28;20685;-66
2023/04/22 03:14:11;;;;;;;7.23;2.10;;;20.30;78.90;;;;;;5072901;28;20214;-66
2023/04/22 03:16:38;;;;;;;6.80;2.00;;;20.20;79.00;;;;;;5071419;28;20194;-66
2023/04/22 03:19:06;;;;;;;7.17;2.30;;;20.20;79.50;;;;;;5065446;28;20624;-65
2023/04/22 03:21:33;;;;;;;6.87;2.07;;;20.20;80.30;;;;;;5072484;28;20199;-65
2023/04/22 03:24:01;;;;;;;6.77;2.50;;;20.20;80.80;;;;;;5072854;28;20179;-65
2023/04/22 03:26:28;;;;;;;7.70;2.17;;;20.20;81.00;;;;;;5072784;28;20539;-65
2023/04/22 03:28:55;;;;;;;6.40;2.30;;;20.20;81.00;;;;;;5072790;28;20187;-68
2023/04/22 03:31:23;;;;;;;6.47;2.00;;;20.30;80.80;;;;;;5072646;28;20247;-66
2023/04/22 03:33:50;;;;;;;7.77;1.90;;;20.30;80.60;;;;;;5072170;28;20279;-66
2023/04/22 03:36:17;;;;;;;4.43;1.80;;;20.30;79.80;;;;;;5067438;28;20182;-65
2023/04/22 03:38:44;;;;;;;10.30;2.10;;;20.40;79.60;;;;;;5068725;28;20194;-66
2023/04/22 03:41:12;;;;;;;5.33;2.17;;;20.40;78.90;;;;;;5072349;28;20185;-70
2023/04/22 03:43:39;;;;;;;6.43;1.70;;;20.50;78.40;;;;;;5072387;28;20250;-65
2023/04/22 03:46:07;;;;;;;5.93;2.07;;;20.60;78.50;;;;;;5072337;28;20179;-67
2023/04/22 03:48:34;;;;;;;5.67;1.90;;;20.60;78.40;;;;;;5072457;28;20215;-67
2023/04/22 03:51:02;;;;;;;6.50;1.80;;;20.70;78.20;;;;;;5077459;28;20258;-67
2023/04/22 03:53:29;;;;;;;5.47;2.07;;;20.80;77.90;;;;;;5073368;28;20293;-67
2023/04/22 03:55:57;;;;;;;7.67;1.83;;;20.70;77.90;;;;;;5072595;28;20190;-67
2023/04/22 03:58:24;;;;;;;7.33;2.10;;;20.80;78.30;;;;;;5071995;28;20183;-67
2023/04/22 04:00:51;;;;;;;4.30;1.83;;;20.80;78.30;;;;;;5068696;28;20194;-65
2023/04/22 04:03:19;;;;;;;3.97;1.77;;;20.80;78.30;;;;;;5070142;28;20179;-66
2023/04/22 04:05:46;;;;;;;3.97;1.70;;;20.70;78.40;;;;;;5071926;28;20178;-66
2023/04/22 04:08:14;;;;;;;8.90;2.47;;;20.60;79.00;;;;;;5072107;28;20664;-66
2023/04/22 04:10:42;;;;;;;7.60;2.00;;;20.60;79.60;;;;;;5071679;28;20574;-65
2023/04/22 04:13:09;;;;;;;12.73;8.70;;;20.60;80.10;;;;;;5071937;28;20357;-66
2023/04/22 04:15:37;;;;;;;5.97;3.37;;;20.50;80.40;;;;;;5071494;28;20194;-66
2023/04/22 04:18:08;;;;;;;7.50;3.77;;;20.40;80.90;;;;;;5071629;28;20199;-66
2023/04/22 04:20:35;;;;;;;5.87;2.37;;;20.30;81.40;;;;;;5071663;28;20244;-67
2023/04/22 04:23:03;;;;;;;7.93;2.50;;;20.30;81.60;;;;;;5072392;28;20179;-67
2023/04/22 04:25:37;;;;;;;6.33;2.27;;;20.20;82.30;;;;;;5071307;28;20191;-66
2023/04/22 04:28:09;;;;;;;7.03;2.30;;;20.20;82.70;;;;;;5072079;28;20183;-66
2023/04/22 04:30:37;;;;;;;7.47;2.70;;;20.00;82.90;;;;;;5071647;28;20639;-68
2023/04/22 04:33:05;;;;;;;7.70;3.00;;;20.00;83.30;;;;;;5071644;28;20582;-67
2023/04/22 04:35:34;;;;;;;15.17;8.47;;;20.00;83.50;;;;;;5071482;28;20187;-68
2023/04/22 04:38:02;;;;;;;15.73;9.77;;;20.00;83.70;;;;;;5066931;28;20216;-66
2023/04/22 04:40:29;;;;;;;9.87;4.13;;;20.00;83.70;;;;;;5071130;28;20248;-65
2023/04/22 04:42:57;;;;;;;9.23;2.80;;;19.90;83.90;;;;;;5071952;28;20710;-66
2023/04/22 04:45:24;;;;;;;7.73;2.80;;;19.90;84.10;;;;;;5071162;28;20187;-66
2023/04/22 04:47:53;;;;;;;8.60;2.90;;;19.80;84.50;;;;;;5071862;28;20195;-67
2023/04/22 04:50:21;;;;;;;9.47;3.33;;;19.80;84.80;;;;;;5071073;28;20214;-66
2023/04/22 04:52:49;;;;;;;9.73;2.60;;;19.80;85.00;;;;;;5071543;28;20276;-65
2023/04/22 04:55:16;;;;;;;12.70;3.43;;;19.80;85.20;;;;;;5071009;28;20756;-66
2023/04/22 04:57:47;;;;;;;6.40;2.73;;;19.70;85.40;;;;;;5071612;28;20591;-67
2023/04/22 05:00:14;;;;;;;7.13;2.87;;;19.70;85.20;;;;;;5071166;28;20668;-65
2023/04/22 05:02:42;;;;;;;17.37;11.33;;;19.60;85.20;;;;;;5068569;28;20232;-67
2023/04/22 05:05:11;;;;;;;9.03;6.93;;;19.60;85.70;;;;;;5069357;28;20218;-67
2023/04/22 05:07:38;;;;;;;7.93;3.13;;;19.60;85.80;;;;;;5066553;28;20194;-68
2023/04/22 05:10:06;;;;;;;9.70;3.50;;;19.60;86.00;;;;;;5067698;28;20589;-66
2023/04/22 05:12:33;;;;;;;10.57;2.83;;;19.60;86.20;;;;;;5064737;28;20229;-65
2023/04/22 05:15:01;;;;;;;8.60;3.47;;;19.50;86.40;;;;;;5061221;28;20622;-66
2023/04/22 05:17:29;;;;;;;12.40;3.97;;;19.50;86.60;;;;;;5070859;28;20206;-67
2023/04/22 05:19:56;;;;;;;10.00;4.57;;;19.50;87.30;;;;;;5070182;28;20537;-64
2023/04/22 05:22:24;;;;;;;9.70;4.43;;;19.50;88.10;;;;;;5068679;28;20201;-66
2023/04/22 05:24:51;;;;;;;13.60;4.53;;;19.40;88.40;;;;;;5073353;28;20810;-63
2023/04/22 05:27:18;;;;;;;14.70;5.70;;;19.30;88.60;;;;;;5069634;28;20520;-64
2023/04/22 05:29:46;;;;;;;14.53;5.43;;;19.30;89.10;;;;;;5063876;28;20498;-64
2023/04/22 05:32:13;;;;;;;11.97;4.43;;;19.30;89.50;;;;;;5073944;28;20232;-68
2023/04/22 05:34:40;;;;;;;9.50;4.77;;;19.30;89.60;;;;;;5076273;28;20179;-65
2023/04/22 05:37:09;;;;;;;15.17;5.80;;;19.20;89.80;;;;;;5078393;28;20175;-67
2023/04/22 05:39:37;;;;;;;11.53;5.70;;;19.30;90.10;;;;;;5070993;28;20191;-65
2023/04/22 05:42:04;;;;;;;17.17;6.30;;;19.20;90.30;;;;;;5071372;28;20195;-66
2023/04/22 05:44:31;;;;;;;13.10;5.83;;;19.20;90.40;;;;;;5069800;28;20179;-66
2023/04/22 05:46:59;;;;;;;28.07;22.03;;;19.20;90.70;;;;;;5074602;28;20633;-66
2023/04/22 05:49:26;;;;;;;16.77;12.80;;;19.20;90.80;;;;;;5073956;28;20638;-65
2023/04/22 05:51:54;;;;;;;18.37;10.97;;;19.20;91.00;;;;;;5075599;28;20209;-63
2023/04/22 05:54:21;;;;;;;21.07;9.37;;;19.10;91.20;;;;;;5074895;28;20222;-67
2023/04/22 05:56:48;;;;;;;16.63;10.57;;;19.10;91.50;;;;;;5072232;28;20202;-65
2023/04/22 05:59:16;;;;;;;18.53;10.90;;;19.00;91.70;;;;;;5073127;28;20191;-64
2023/04/22 06:01:43;;;;;;;14.87;12.00;;;19.00;91.90;;;;;;5072146;28;20179;-65
2023/04/22 06:04:11;;;;;;;15.57;13.27;;;18.90;92.00;;;;;;5074728;28;20187;-65
2023/04/22 06:06:38;;;;;;;20.17;16.33;;;19.00;92.30;;;;;;5072908;28;20648;-64
2023/04/22 06:09:06;;;;;;;25.27;20.60;;;19.00;92.40;;;;;;5071224;28;20273;-66
2023/04/22 06:11:33;;;;;;;28.23;25.70;;;19.00;92.50;;;;;;5072011;28;20237;-62
2023/04/22 06:14:01;;;;;;;31.73;29.03;;;18.90;92.60;;;;;;5073097;28;20305;-65
2023/04/22 06:16:29;;;;;;;34.40;31.77;;;18.90;92.70;;;;;;5071878;28;20557;-64
2023/04/22 06:18:56;;;;;;;39.93;36.67;;;18.90;92.70;;;;;;5071365;28;20195;-66
2023/04/22 06:21:24;;;;;;;36.77;34.37;;;18.90;92.80;;;;;;5073807;28;20198;-66
2023/04/22 06:23:51;;;;;;;56.73;53.10;;;18.80;92.80;;;;;;5078678;28;20193;-65
2023/04/22 06:26:18;;;;;;;64.97;61.10;;;18.80;92.80;;;;;;5073509;28;20716;-64
2023/04/22 06:28:46;;;;;;;89.53;84.03;;;18.80;92.80;;;;;;5074288;28;20271;-67
2023/04/22 06:31:13;;;;;;;120.70;113.47;;;18.80;92.90;;;;;;5078275;28;20195;-66
2023/04/22 06:33:40;;;;;;;44.00;40.90;;;18.80;93.00;;;;;;5072830;28;20239;-64
2023/04/22 06:36:08;;;;;;;10.70;9.40;;;18.80;93.10;;;;;;5071319;28;20296;-65
2023/04/22 06:38:35;;;;;;;11.93;8.80;;;18.80;93.10;;;;;;5074327;28;20198;-64
2023/04/22 06:41:02;;;;;;;147.23;139.33;;;18.80;93.20;;;;;;5072977;28;20270;-64
2023/04/22 06:43:30;;;;;;;188.10;177.87;;;18.80;93.20;;;;;;5074113;28;20187;-65
2023/04/22 06:45:57;;;;;;;202.03;191.07;;;18.80;93.30;;;;;;5071680;28;20531;-65
2023/04/22 06:48:26;;;;;;;208.43;197.67;;;18.80;93.30;;;;;;5073868;28;20333;-64
2023/04/22 06:50:53;;;;;;;197.87;187.57;;;18.80;93.30;;;;;;5071297;28;20191;-64
2023/04/22 06:53:20;;;;;;;198.63;188.37;;;18.80;93.40;;;;;;5072804;28;20263;-65
2023/04/22 06:55:49;;;;;;;209.80;199.10;;;18.70;93.40;;;;;;5073163;28;20635;-62
2023/04/22 06:58:16;;;;;;;216.07;204.83;;;18.80;93.60;;;;;;5071659;28;20540;-64
2023/04/22 07:00:43;;;;;;;226.97;215.37;;;18.80;93.50;;;;;;5074595;28;20284;-64
2023/04/22 07:03:10;;;;;;;245.50;233.07;;;18.70;93.50;;;;;;5104449;27;20626;-64
2023/04/22 07:05:38;;;;;;;238.57;226.63;;;18.70;93.50;;;;;;5072280;28;20545;-64
2023/04/22 07:08:05;;;;;;;244.57;231.60;;;18.60;93.60;;;;;;5068840;28;20190;-64
2023/04/22 07:10:34;;;;;;;253.60;240.73;;;18.70;93.70;;;;;;5070637;28;20676;-65
2023/04/22 07:13:01;;;;;;;258.47;245.43;;;18.60;93.60;;;;;;5069396;28;20294;-64
2023/04/22 07:15:28;;;;;;;278.97;265.37;;;18.50;93.70;;;;;;5071000;28;20183;-63
2023/04/22 07:17:56;;;;;;;278.90;264.53;;;18.60;93.70;;;;;;5067256;28;20183;-64
2023/04/22 07:20:23;;;;;;;303.63;288.63;;;18.60;93.80;;;;;;5071183;28;20591;-64
2023/04/22 07:22:51;;;;;;;296.33;281.33;;;18.60;93.80;;;;;;5073029;28;20175;-64
2023/04/22 07:25:19;;;;;;;305.33;290.03;;;18.60;93.80;;;;;;5072302;28;20281;-65
2023/04/22 07:27:46;;;;;;;306.50;290.93;;;18.50;93.80;;;;;;5071217;28;20193;-65
2023/04/22 07:30:14;;;;;;;309.47;294.03;;;18.60;93.90;;;;;;5070099;28;20495;-65
2023/04/22 07:32:41;;;;;;;303.33;288.33;;;18.50;93.80;;;;;;5071342;28;20261;-64
2023/04/22 07:35:09;;;;;;;305.43;290.17;;;18.40;93.80;;;;;;5070558;28;20186;-62
2023/04/22 07:37:36;;;;;;;298.03;283.43;;;18.40;93.90;;;;;;5069403;28;20189;-65
2023/04/22 07:40:04;;;;;;;308.10;292.97;;;18.50;93.90;;;;;;5069237;28;20622;-63
2023/04/22 07:42:32;;;;;;;300.37;285.47;;;18.40;93.90;;;;;;5070236;28;20191;-63
2023/04/22 07:44:59;;;;;;;310.47;294.63;;;18.40;93.90;;;;;;5070183;28;20645;-62
2023/04/22 07:47:26;;;;;;;312.33;296.70;;;18.40;93.90;;;;;;5071196;28;20203;-62
2023/04/22 07:49:53;;;;;;;308.43;293.20;;;18.40;93.90;;;;;;5069704;28;20650;-65
2023/04/22 07:52:21;;;;;;;318.50;302.57;;;18.40;94.00;;;;;;5068966;28;20198;-65
2023/04/22 07:54:49;;;;;;;318.10;301.83;;;18.40;93.90;;;;;;5072199;28;20553;-65
2023/04/22 07:57:20;;;;;;;322.03;305.93;;;18.40;94.00;;;;;;5067901;28;20278;-63
2023/04/22 07:59:51;;;;;;;327.10;311.20;;;18.30;94.00;;;;;;5067966;28;20191;-63
2023/04/22 08:02:18;;;;;;;328.40;312.27;;;18.30;94.00;;;;;;5072186;28;20190;-65
2023/04/22 08:04:45;;;;;;;346.50;329.50;;;18.30;94.00;;;;;;5065304;28;20191;-66
2023/04/22 08:07:14;;;;;;;341.10;324.40;;;18.30;94.00;;;;;;5071473;28;20187;-67
2023/04/22 08:09:41;;;;;;;342.70;325.77;;;18.30;94.00;;;;;;5069584;28;20325;-65
2023/04/22 08:12:08;;;;;;;352.70;335.03;;;18.30;94.00;;;;;;5067618;28;20219;-64
2023/04/22 08:14:36;;;;;;;366.13;348.40;;;18.30;94.00;;;;;;5070865;28;21418;-65
2023/04/22 08:17:03;;;;;;;360.03;342.17;;;18.20;94.10;;;;;;5067120;28;20183;-63
2023/04/22 08:19:30;;;;;;;372.20;353.53;;;18.20;94.10;;;;;;5069429;28;20175;-65
2023/04/22 08:21:58;;;;;;;378.73;359.87;;;18.30;94.20;;;;;;5068639;28;20191;-67
2023/04/22 08:24:25;;;;;;;390.23;370.80;;;18.30;94.10;;;;;;5071348;28;20622;-64
2023/04/22 08:26:53;;;;;;;414.30;393.67;;;18.20;94.20;;;;;;5069800;28;20248;-64
2023/04/22 08:29:20;;;;;;;414.00;393.53;;;18.20;94.20;;;;;;5071044;28;20195;-64
2023/04/22 08:31:47;;;;;;;425.53;404.13;;;18.20;94.20;;;;;;5071575;28;20215;-63
2023/04/22 08:34:15;;;;;;;428.67;407.27;;;18.20;94.20;;;;;;5068132;28;20218;-65
2023/04/22 08:36:42;;;;;;;429.00;407.37;;;18.30;94.20;;;;;;5069242;28;20216;-64
2023/04/22 08:39:10;;;;;;;443.97;421.07;;;18.30;94.30;;;;;;5071237;28;20193;-63
2023/04/22 08:41:38;;;;;;;459.60;436.07;;;18.30;94.30;;;;;;5070786;28;20188;-64
2023/04/22 08:44:06;;;;;;;457.10;433.90;;;18.30;94.30;;;;;;5066489;28;20191;-64
2023/04/22 08:46:33;;;;;;;460.27;436.60;;;18.20;94.30;;;;;;5070013;28;20199;-63
2023/04/22 08:49:04;;;;;;;456.17;433.33;;;18.20;94.30;;;;;;5068241;28;20244;-63
2023/04/22 08:51:35;;;;;;;468.53;444.60;;;18.20;94.40;;;;;;5067150;28;20210;-63
2023/04/22 08:54:02;;;;;;;471.87;447.80;;;18.20;94.30;;;;;;5073565;28;20223;-64
2023/04/22 08:56:30;;;;;;;477.43;452.97;;;18.20;94.30;;;;;;5069431;28;20186;-63
2023/04/22 08:58:58;;;;;;;477.10;452.07;;;18.10;94.30;;;;;;5069211;28;20608;-63
2023/04/22 09:01:27;;;;;;;484.57;460.00;;;18.10;94.30;;;;;;5068422;28;20320;-64
2023/04/22 09:03:58;;;;;;;477.57;453.03;;;18.10;94.40;;;;;;5064302;28;20331;-62
2023/04/22 09:06:26;;;;;;;482.17;456.37;;;18.10;94.40;;;;;;5068370;28;20344;-63
2023/04/22 09:08:54;;;;;;;478.47;453.07;;;18.00;94.40;;;;;;5066948;28;20202;-66
2023/04/22 09:11:21;;;;;;;479.53;454.50;;;18.00;94.40;;;;;;5069996;28;20234;-63
2023/04/22 09:13:49;;;;;;;488.80;463.53;;;17.90;94.40;;;;;;5070367;28;20229;-64
2023/04/22 09:16:16;;;;;;;481.23;456.23;;;18.00;94.50;;;;;;5069733;28;20223;-64
2023/04/22 09:18:45;;;;;;;485.73;461.10;;;18.00;94.50;;;;;;5065273;28;20206;-63
2023/04/22 09:21:13;;;;;;;485.80;460.87;;;18.00;94.40;;;;;;5070271;28;20184;-63
2023/04/22 09:23:54;;;;;;;476.47;452.30;;;17.90;94.40;;;;;;5070549;28;20179;-63
2023/04/22 09:26:26;;;;;;;473.43;449.50;;;17.90;94.40;;;;;;5068954;28;20289;-64
2023/04/22 09:28:59;;;;;;;484.03;458.97;;;17.90;94.50;;;;;;5065169;28;20187;-65
2023/04/22 09:31:29;;;;;;;493.57;468.07;;;17.90;94.50;;;;;;5070528;28;20236;-62
2023/04/22 09:33:59;;;;;;;489.03;463.90;;;17.90;94.50;;;;;;5070837;28;20230;-63
2023/04/22 09:36:36;;;;;;;478.77;454.27;;;17.90;94.50;;;;;;5070601;28;20188;-64
2023/04/22 09:39:09;;;;;;;463.07;439.57;;;17.90;94.60;;;;;;5068598;28;20201;-65
2023/04/22 09:41:40;;;;;;;463.03;439.30;;;17.90;94.60;;;;;;5069889;28;20187;-67
2023/04/22 09:44:16;;;;;;;455.63;432.30;;;18.00;94.60;;;;;;5068293;28;20274;-67
2023/04/22 09:46:45;;;;;;;444.03;421.90;;;18.00;94.60;;;;;;5069091;28;20186;-64
2023/04/22 09:49:15;;;;;;;441.27;419.10;;;18.00;94.60;;;;;;5066348;28;20221;-65
2023/04/22 09:51:42;;;;;;;442.27;420.20;;;18.00;94.60;;;;;;5066685;28;20179;-63
2023/04/22 09:54:11;;;;;;;430.73;408.93;;;18.00;94.60;;;;;;5066861;28;20221;-66
2023/04/22 09:56:48;;;;;;;413.47;392.90;;;18.00;94.60;;;;;;5070476;28;20266;-64
2023/04/22 09:59:20;;;;;;;414.57;393.83;;;18.00;94.70;;;;;;5068246;28;20206;-65
2023/04/22 10:01:49;;;;;;;405.30;385.23;;;17.90;94.60;;;;;;5068122;28;20184;-65
2023/04/22 10:04:16;;;;;;;402.27;382.37;;;18.00;94.70;;;;;;5068646;28;20195;-64
2023/04/22 10:06:44;;;;;;;388.33;369.07;;;18.00;94.70;;;;;;5069833;28;20183;-63
2023/04/22 10:09:11;;;;;;;392.70;373.03;;;18.00;94.70;;;;;;5069664;28;20277;-66
2023/04/22 10:11:40;;;;;;;366.20;347.80;;;17.90;94.70;;;;;;5069731;28;20570;-65
2023/04/22 10:14:09;;;;;;;371.63;352.83;;;18.00;94.70;;;;;;5070384;28;20290;-64
2023/04/22 10:16:39;;;;;;;384.43;364.93;;;17.90;94.70;;;;;;5069356;28;20223;-64
2023/04/22 10:19:12;;;;;;;382.33;363.03;;;17.90;94.70;;;;;;5068329;28;20237;-65
2023/04/22 10:21:43;;;;;;;370.77;351.97;;;18.00;94.80;;;;;;5070281;28;21863;-64
2023/04/22 10:24:18;;;;;;;382.47;363.33;;;18.00;94.80;;;;;;5069624;28;20174;-63
2023/04/22 10:27:05;;;;;;;384.57;365.00;;;18.00;94.70;;;;;;5074745;28;20197;-65
2023/04/22 10:29:41;;;;;;;390.43;370.77;;;18.00;94.70;;;;;;5072089;28;20862;-64
2023/04/22 10:32:18;;;;;;;365.20;347.17;;;18.00;94.80;;;;;;5070001;28;20185;-66
2023/04/22 10:34:49;;;;;;;354.80;337.23;;;18.00;94.80;;;;;;5073193;28;20187;-62
2023/04/22 10:37:24;;;;;;;347.80;330.70;;;18.00;94.80;;;;;;5073498;28;20588;-66
2023/04/22 10:40:16;;;;;;;346.67;329.33;;;18.00;94.80;;;;;;5069972;28;20190;-66
2023/04/22 10:42:49;;;;;;;353.83;336.10;;;18.00;94.80;;;;;;5072179;28;20187;-65
2023/04/22 10:45:17;;;;;;;355.13;336.80;;;18.00;94.80;;;;;;5067895;28;20323;-64
2023/04/22 10:47:45;;;;;;;346.70;329.47;;;18.00;94.90;;;;;;5073281;28;20175;-66
2023/04/22 10:50:18;;;;;;;349.93;332.53;;;18.00;94.90;;;;;;5071756;28;20661;-64
2023/04/22 10:53:23;;;;;;;346.23;328.83;;;18.00;94.90;;;;;;5069259;28;20211;-63
2023/04/22 10:55:55;;;;;;;338.70;321.80;;;17.90;94.80;;;;;;5053266;28;20543;-64
2023/04/22 10:58:24;;;;;;;345.20;327.80;;;18.00;94.90;;;;;;5076925;28;20187;-65
2023/04/22 11:00:58;;;;;;;336.37;319.03;;;18.00;94.90;;;;;;5073190;28;20596;-65
2023/04/22 11:03:28;;;;;;;340.80;323.73;;;18.10;94.90;;;;;;5073354;28;20187;-65
2023/04/22 11:06:17;;;;;;;323.13;306.73;;;18.10;94.90;;;;;;5070023;28;20551;-63
2023/04/22 11:09:06;;;;;;;342.33;325.23;;;18.10;95.00;;;;;;5066578;28;20267;-65
2023/04/22 11:11:33;;;;;;;346.70;329.50;;;18.10;95.00;;;;;;5072304;28;20568;-64
2023/04/22 11:14:01;;;;;;;338.43;321.10;;;18.10;94.90;;;;;;5066869;28;20609;-64
2023/04/22 11:16:29;;;;;;;343.80;326.93;;;18.10;95.00;;;;;;5072636;28;20198;-63
2023/04/22 11:18:57;;;;;;;335.00;318.27;;;18.10;95.00;;;;;;5071455;28;20218;-63
2023/04/22 11:21:26;;;;;;;320.73;304.80;;;18.10;95.00;;;;;;5072427;28;20188;-64
2023/04/22 11:23:53;;;;;;;309.90;294.50;;;18.10;95.00;;;;;;5069916;28;20202;-65
2023/04/22 11:26:36;;;;;;;319.13;302.97;;;18.00;95.00;;;;;;5071666;28;20188;-66
2023/04/22 11:29:04;;;;;;;334.40;317.47;;;18.10;95.00;;;;;;5070164;28;20591;-65
2023/04/22 11:31:31;;;;;;;327.13;310.53;;;18.10;95.00;;;;;;5068219;28;20183;-66
2023/04/22 11:34:01;;;;;;;358.57;340.87;;;18.00;95.00;;;;;;5070377;28;20576;-65
2023/04/22 11:36:29;;;;;;;349.43;332.03;;;18.00;95.00;;;;;;5071589;28;20187;-63
2023/04/22 11:38:57;;;;;;;362.80;344.53;;;18.00;95.00;;;;;;5071181;28;20187;-64
2023/04/22 11:41:24;;;;;;;328.60;312.00;;;18.00;95.00;;;;;;5068634;28;20184;-65
2023/04/22 11:43:53;;;;;;;343.87;326.33;;;18.00;95.10;;;;;;5071307;28;20191;-64
2023/04/22 11:46:39;;;;;;;349.67;332.57;;;18.00;95.00;;;;;;5067361;28;20183;-64
2023/04/22 11:49:16;;;;;;;352.73;335.43;;;18.00;95.00;;;;;;5065932;28;20194;-67
2023/04/22 11:51:56;;;;;;;364.57;346.67;;;17.80;95.00;;;;;;5067597;28;20532;-65
2023/04/22 11:54:37;;;;;;;360.90;343.07;;;17.80;95.00;;;;;;5069286;28;20211;-65
2023/04/22 11:57:14;;;;;;;371.57;353.03;;;17.70;95.00;;;;;;5068460;28;20188;-62
2023/04/22 11:59:42;;;;;;;388.57;369.13;;;17.70;95.00;;;;;;5066939;28;20533;-62
2023/04/22 12:02:10;;;;;;;372.00;353.50;;;17.60;95.00;;;;;;5069750;28;20203;-63
2023/04/22 12:04:42;;;;;;;382.93;363.67;;;17.60;95.10;;;;;;5052381;28;20198;-63
2023/04/22 12:07:10;;;;;;;378.83;360.07;;;17.60;95.10;;;;;;5068601;28;20238;-63
2023/04/22 12:09:39;;;;;;;366.60;348.40;;;17.60;95.20;;;;;;5070782;28;20698;-64
2023/04/22 12:12:06;;;;;;;398.53;378.70;;;17.60;95.10;;;;;;5063660;28;20219;-63
2023/04/22 12:14:35;;;;;;;405.97;385.83;;;17.60;95.10;;;;;;5068964;28;20591;-64
2023/04/22 12:17:10;;;;;;;408.23;388.17;;;17.50;95.10;;;;;;5068364;28;20175;-62
2023/04/22 12:19:38;;;;;;;390.67;371.40;;;17.50;95.10;;;;;;5070974;28;20190;-64
2023/04/22 12:22:05;;;;;;;401.03;381.30;;;17.50;95.20;;;;;;5075091;28;20677;-67
2023/04/22 12:24:32;;;;;;;441.00;418.97;;;17.50;95.20;;;;;;5071742;28;20256;-63
2023/04/22 12:27:00;;;;;;;428.43;407.17;;;17.60;95.20;;;;;;5074910;28;20210;-63
2023/04/22 12:29:32;;;;;;;443.47;421.00;;;17.60;95.20;;;;;;5069480;28;20657;-63
2023/04/22 12:31:59;;;;;;;450.77;428.03;;;17.60;95.20;;;;;;5069824;28;20641;-64
2023/04/22 12:34:27;;;;;;;470.93;446.67;;;17.60;95.20;;;;;;5070377;28;20215;-62